Terminal Aerodrome Forecast
Issued by NWS

Home | Current Version | Previous Version | Text Only | Print | Product List | Glossary On
Versions: 1 2 3 4 5 6 7 8 9 10 11 12 13
470
FTUS43 KMQT 031124
TAFCMX
TAF
KCMX 031124Z 0312/0412 26012KT P6SM OVC110
     FM031400 26012G18KT P6SM OVC100
     FM031800 26013G19KT P6SM VCSH OVC040
     FM032000 29012G18KT P6SM VCSH BKN060
     FM032300 34009KT P6SM BKN080
     FM040300 36013KT P6SM BKN060
     FM040500 36014G21KT P6SM BKN050
     FM041000 35014G23KT P6SM OVC030=

USA.gov is the U.S. government's official web portal to all federal, state and local government web resources and services.